sensor_id;sensor_type;location;lat;lon;timestamp;pressure;altitude;pressure_sealevel;temperature
73734;BMP280;62039;50.000;9.064;2023-09-18T00:01:29;99600.59;;;22.51
73734;BMP280;62039;50.000;9.064;2023-09-18T00:03:56;99599.19;;;22.48
73734;BMP280;62039;50.000;9.064;2023-09-18T00:06:23;99609.84;;;22.48
73734;BMP280;62039;50.000;9.064;2023-09-18T00:08:50;99602.91;;;22.47
73734;BMP280;62039;50.000;9.064;2023-09-18T00:11:19;99601.88;;;22.48
73734;BMP280;62039;50.000;9.064;2023-09-18T00:13:47;99589.84;;;22.46
73734;BMP280;62039;50.000;9.064;2023-09-18T00:16:13;99600.50;;;22.46
73734;BMP280;62039;50.000;9.064;2023-09-18T00:18:40;99609.53;;;22.45
73734;BMP280;62039;50.000;9.064;2023-09-18T00:21:08;99597.31;;;22.44
73734;BMP280;62039;50.000;9.064;2023-09-18T00:23:34;99594.66;;;22.44
73734;BMP280;62039;50.000;9.064;2023-09-18T00:26:02;99600.47;;;22.41
73734;BMP280;62039;50.000;9.064;2023-09-18T00:28:32;99596.22;;;22.40
73734;BMP280;62039;50.000;9.064;2023-09-18T00:30:59;99586.09;;;22.37
73734;BMP280;62039;50.000;9.064;2023-09-18T00:33:25;99582.88;;;22.35
73734;BMP280;62039;50.000;9.064;2023-09-18T00:35:53;99584.97;;;22.32
73734;BMP280;62039;50.000;9.064;2023-09-18T00:38:20;99583.38;;;22.31
73734;BMP280;62039;50.000;9.064;2023-09-18T00:40:47;99576.47;;;22.30
73734;BMP280;62039;50.000;9.064;2023-09-18T00:43:14;99568.75;;;22.29
73734;BMP280;62039;50.000;9.064;2023-09-18T00:45:45;99576.72;;;22.29
73734;BMP280;62039;50.000;9.064;2023-09-18T00:48:14;99568.19;;;22.27
73734;BMP280;62039;50.000;9.064;2023-09-18T00:50:43;99562.59;;;22.23
73734;BMP280;62039;50.000;9.064;2023-09-18T00:53:13;99558.31;;;22.22
73734;BMP280;62039;50.000;9.064;2023-09-18T00:55:41;99547.13;;;22.20
73734;BMP280;62039;50.000;9.064;2023-09-18T00:58:08;99550.59;;;22.21
73734;BMP280;62039;50.000;9.064;2023-09-18T01:00:36;99549.78;;;22.20
73734;BMP280;62039;50.000;9.064;2023-09-18T01:03:05;99542.88;;;22.19
73734;BMP280;62039;50.000;9.064;2023-09-18T01:05:33;99543.69;;;22.20
73734;BMP280;62039;50.000;9.064;2023-09-18T01:08:00;99552.94;;;22.17
73734;BMP280;62039;50.000;9.064;2023-09-18T01:10:32;99544.19;;;22.17
73734;BMP280;62039;50.000;9.064;2023-09-18T01:13:04;99552.44;;;22.15
73734;BMP280;62039;50.000;9.064;2023-09-18T01:15:38;99541.22;;;22.13
73734;BMP280;62039;50.000;9.064;2023-09-18T01:18:09;99535.91;;;22.13
73734;BMP280;62039;50.000;9.064;2023-09-18T01:20:36;99530.84;;;22.12
73734;BMP280;62039;50.000;9.064;2023-09-18T01:23:06;99519.41;;;22.11
73734;BMP280;62039;50.000;9.064;2023-09-18T01:25:33;99513.56;;;22.09
73734;BMP280;62039;50.000;9.064;2023-09-18T01:28:00;99513.00;;;22.07
73734;BMP280;62039;50.000;9.064;2023-09-18T01:30:27;99504.47;;;22.05
73734;BMP280;62039;50.000;9.064;2023-09-18T01:32:54;99508.19;;;22.04
73734;BMP280;62039;50.000;9.064;2023-09-18T01:35:23;99498.88;;;22.02
73734;BMP280;62039;50.000;9.064;2023-09-18T01:37:51;99505.50;;;21.99
73734;BMP280;62039;50.000;9.064;2023-09-18T01:40:21;99503.88;;;21.98
73734;BMP280;62039;50.000;9.064;2023-09-18T01:42:48;99496.19;;;21.97
73734;BMP280;62039;50.000;9.064;2023-09-18T01:45:15;99499.91;;;21.96
73734;BMP280;62039;50.000;9.064;2023-09-18T01:47:42;99498.28;;;21.95
73734;BMP280;62039;50.000;9.064;2023-09-18T01:50:10;99495.63;;;21.95
73734;BMP280;62039;50.000;9.064;2023-09-18T01:52:37;99497.50;;;21.94
73734;BMP280;62039;50.000;9.064;2023-09-18T01:55:05;99488.47;;;21.95
73734;BMP280;62039;50.000;9.064;2023-09-18T01:57:35;99483.94;;;21.96
73734;BMP280;62039;50.000;9.064;2023-09-18T02:00:02;99477.84;;;21.95
73734;BMP280;62039;50.000;9.064;2023-09-18T02:02:30;99477.84;;;21.95
73734;BMP280;62039;50.000;9.064;2023-09-18T02:05:17;99476.22;;;21.94
73734;BMP280;62039;50.000;9.064;2023-09-18T02:07:44;99475.41;;;21.93
73734;BMP280;62039;50.000;9.064;2023-09-18T02:10:11;99474.63;;;21.93
73734;BMP280;62039;50.000;9.064;2023-09-18T02:12:41;99473.00;;;21.92
73734;BMP280;62039;50.000;9.064;2023-09-18T02:15:08;99477.78;;;21.90
73734;BMP280;62039;50.000;9.064;2023-09-18T02:17:35;99475.13;;;21.90
73734;BMP280;62039;50.000;9.064;2023-09-18T02:20:03;99478.03;;;21.88
73734;BMP280;62039;50.000;9.064;2023-09-18T02:22:31;99508.31;;;21.87
73734;BMP280;62039;50.000;9.064;2023-09-18T02:24:58;99554.56;;;21.86
73734;BMP280;62039;50.000;9.064;2023-09-18T02:27:26;99543.63;;;21.83
73734;BMP280;62039;50.000;9.064;2023-09-18T02:29:56;99513.84;;;21.81
73734;BMP280;62039;50.000;9.064;2023-09-18T02:32:23;99564.84;;;21.78
73734;BMP280;62039;50.000;9.064;2023-09-18T02:34:50;99599.66;;;21.76
73734;BMP280;62039;50.000;9.064;2023-09-18T02:37:17;99700.09;;;21.74
73734;BMP280;62039;50.000;9.064;2023-09-18T02:39:44;99676.66;;;21.71
73734;BMP280;62039;50.000;9.064;2023-09-18T02:42:11;99679.81;;;21.68
73734;BMP280;62039;50.000;9.064;2023-09-18T02:44:38;99697.06;;;21.66
73734;BMP280;62039;50.000;9.064;2023-09-18T02:47:08;99681.91;;;21.66
73734;BMP280;62039;50.000;9.064;2023-09-18T02:49:35;99686.94;;;21.63
73734;BMP280;62039;50.000;9.064;2023-09-18T02:52:02;99663.03;;;21.63
73734;BMP280;62039;50.000;9.064;2023-09-18T02:54:29;99657.16;;;21.61
73734;BMP280;62039;50.000;9.064;2023-09-18T02:56:56;99653.44;;;21.62
73734;BMP280;62039;50.000;9.064;2023-09-18T02:59:23;99630.56;;;21.61
73734;BMP280;62039;50.000;9.064;2023-09-18T03:01:50;99619.94;;;21.61
73734;BMP280;62039;50.000;9.064;2023-09-18T03:04:19;99632.19;;;21.62
73734;BMP280;62039;50.000;9.064;2023-09-18T03:06:46;99597.09;;;21.60
73734;BMP280;62039;50.000;9.064;2023-09-18T03:09:13;99582.75;;;21.61
73734;BMP280;62039;50.000;9.064;2023-09-18T03:11:40;99564.41;;;21.59
73734;BMP280;62039;50.000;9.064;2023-09-18T03:14:07;99549.78;;;21.57
73734;BMP280;62039;50.000;9.064;2023-09-18T03:16:34;99557.75;;;21.57
73734;BMP280;62039;50.000;9.064;2023-09-18T03:19:01;99555.09;;;21.57
73734;BMP280;62039;50.000;9.064;2023-09-18T03:21:31;99560.41;;;21.57
73734;BMP280;62039;50.000;9.064;2023-09-18T03:23:58;99559.03;;;21.54
73734;BMP280;62039;50.000;9.064;2023-09-18T03:26:25;99552.38;;;21.51
73734;BMP280;62039;50.000;9.064;2023-09-18T03:28:52;99545.97;;;21.47
73734;BMP280;62039;50.000;9.064;2023-09-18T03:31:19;99537.13;;;21.42
73734;BMP280;62039;50.000;9.064;2023-09-18T03:33:47;99533.88;;;21.35
73734;BMP280;62039;50.000;9.064;2023-09-18T03:36:13;99531.38;;;21.28
73734;BMP280;62039;50.000;9.064;2023-09-18T03:38:43;99535.56;;;21.24
73734;BMP280;62039;50.000;9.064;2023-09-18T03:41:10;99526.19;;;21.16
73734;BMP280;62039;50.000;9.064;2023-09-18T03:43:37;99511.53;;;21.09
73734;BMP280;62039;50.000;9.064;2023-09-18T03:46:04;99488.56;;;20.98
73734;BMP280;62039;50.000;9.064;2023-09-18T03:48:31;99489.81;;;20.90
73734;BMP280;62039;50.000;9.064;2023-09-18T03:50:58;99477.53;;;20.84
73734;BMP280;62039;50.000;9.064;2023-09-18T03:53:25;99480.94;;;20.80
73734;BMP280;62039;50.000;9.064;2023-09-18T03:55:55;99483.03;;;20.77
73734;BMP280;62039;50.000;9.064;2023-09-18T03:58:22;99494.69;;;20.76
73734;BMP280;62039;50.000;9.064;2023-09-18T04:00:49;99508.41;;;20.73
73734;BMP280;62039;50.000;9.064;2023-09-18T04:03:16;99504.09;;;20.67
73734;BMP280;62039;50.000;9.064;2023-09-18T04:05:43;99464.22;;;20.62
73734;BMP280;62039;50.000;9.064;2023-09-18T04:08:10;99466.28;;;20.55
73734;BMP280;62039;50.000;9.064;2023-09-18T04:10:37;99490.06;;;20.50
73734;BMP280;62039;50.000;9.064;2023-09-18T04:13:07;99503.28;;;20.45
73734;BMP280;62039;50.000;9.064;2023-09-18T04:15:34;99498.47;;;20.42
73734;BMP280;62039;50.000;9.064;2023-09-18T04:18:01;99515.44;;;20.41
73734;BMP280;62039;50.000;9.064;2023-09-18T04:20:28;99523.38;;;20.41
73734;BMP280;62039;50.000;9.064;2023-09-18T04:23:20;99515.44;;;20.41
73734;BMP280;62039;50.000;9.064;2023-09-18T04:25:47;99504.81;;;20.41
73734;BMP280;62039;50.000;9.064;2023-09-18T04:28:19;99514.38;;;20.42
73734;BMP280;62039;50.000;9.064;2023-09-18T04:30:49;99514.94;;;20.44
73734;BMP280;62039;50.000;9.064;2023-09-18T04:33:16;99505.94;;;20.45
73734;BMP280;62039;50.000;9.064;2023-09-18T04:35:44;99518.16;;;20.46
73734;BMP280;62039;50.000;9.064;2023-09-18T04:38:11;99514.44;;;20.47
73734;BMP280;62039;50.000;9.064;2023-09-18T04:40:38;99527.16;;;20.45
73734;BMP280;62039;50.000;9.064;2023-09-18T04:43:08;99534.06;;;20.46
73734;BMP280;62039;50.000;9.064;2023-09-18T04:45:37;99540.97;;;20.47
73734;BMP280;62039;50.000;9.064;2023-09-18T04:48:05;99542.59;;;20.48
73734;BMP280;62039;50.000;9.064;2023-09-18T04:50:33;99566.47;;;20.48
73734;BMP280;62039;50.000;9.064;2023-09-18T04:52:59;99551.34;;;20.49
73734;BMP280;62039;50.000;9.064;2023-09-18T04:55:26;99539.38;;;20.46
73734;BMP280;62039;50.000;9.064;2023-09-18T04:57:53;99541.94;;;20.41
73734;BMP280;62039;50.000;9.064;2023-09-18T05:00:20;99537.13;;;20.38
73734;BMP280;62039;50.000;9.064;2023-09-18T05:02:50;99522.19;;;20.32
73734;BMP280;62039;50.000;9.064;2023-09-18T05:05:17;99502.53;;;20.28
73734;BMP280;62039;50.000;9.064;2023-09-18T05:07:45;99493.44;;;20.24
73734;BMP280;62039;50.000;9.064;2023-09-18T05:10:12;99459.47;;;20.21
73734;BMP280;62039;50.000;9.064;2023-09-18T05:12:39;99441.38;;;20.18
73734;BMP280;62039;50.000;9.064;2023-09-18T05:15:07;99463.09;;;20.15
73734;BMP280;62039;50.000;9.064;2023-09-18T05:17:42;99473.34;;;20.11
73734;BMP280;62039;50.000;9.064;2023-09-18T05:20:16;99467.72;;;20.08
73734;BMP280;62039;50.000;9.064;2023-09-18T05:22:44;99464.97;;;20.03
73734;BMP280;62039;50.000;9.064;2023-09-18T05:25:11;99466.06;;;20.02
73734;BMP280;62039;50.000;9.064;2023-09-18T05:27:38;99494.88;;;19.98
73734;BMP280;62039;50.000;9.064;2023-09-18T05:30:07;99499.06;;;19.94
73734;BMP280;62039;50.000;9.064;2023-09-18T05:32:35;99501.38;;;19.90
73734;BMP280;62039;50.000;9.064;2023-09-18T05:35:02;99497.13;;;19.89
73734;BMP280;62039;50.000;9.064;2023-09-18T05:37:32;99494.22;;;19.91
73734;BMP280;62039;50.000;9.064;2023-09-18T05:39:59;99500.34;;;19.91
73734;BMP280;62039;50.000;9.064;2023-09-18T05:42:26;99497.69;;;19.91
73734;BMP280;62039;50.000;9.064;2023-09-18T05:44:53;99481.56;;;19.93
73734;BMP280;62039;50.000;9.064;2023-09-18T05:47:20;99470.94;;;19.93
73734;BMP280;62039;50.000;9.064;2023-09-18T05:49:47;99483.97;;;19.94
73734;BMP280;62039;50.000;9.064;2023-09-18T05:52:14;99496.41;;;19.94
73734;BMP280;62039;50.000;9.064;2023-09-18T05:57:45;99506.28;;;19.98
73734;BMP280;62039;50.000;9.064;2023-09-18T06:00:13;99505.53;;;20.03
73734;BMP280;62039;50.000;9.064;2023-09-18T06:02:40;99512.53;;;20.09
73734;BMP280;62039;50.000;9.064;2023-09-18T06:05:07;99520.81;;;20.13
73734;BMP280;62039;50.000;9.064;2023-09-18T06:07:34;99533.59;;;20.16
73734;BMP280;62039;50.000;9.064;2023-09-18T06:10:01;99547.19;;;20.19
73734;BMP280;62039;50.000;9.064;2023-09-18T06:15:09;99554.97;;;20.26
73734;BMP280;62039;50.000;9.064;2023-09-18T06:17:37;99556.59;;;20.27
73734;BMP280;62039;50.000;9.064;2023-09-18T06:20:05;99565.09;;;20.29
73734;BMP280;62039;50.000;9.064;2023-09-18T06:22:32;99564.59;;;20.32
73734;BMP280;62039;50.000;9.064;2023-09-18T06:24:59;99558.84;;;20.35
73734;BMP280;62039;50.000;9.064;2023-09-18T06:27:26;99552.22;;;20.37
73734;BMP280;62039;50.000;9.064;2023-09-18T06:29:53;99549.34;;;20.39
73734;BMP280;62039;50.000;9.064;2023-09-18T06:32:23;99539.84;;;20.43
73734;BMP280;62039;50.000;9.064;2023-09-18T06:34:50;99537.75;;;20.45
73734;BMP280;62039;50.000;9.064;2023-09-18T06:37:17;99538.31;;;20.47
73734;BMP280;62039;50.000;9.064;2023-09-18T06:39:44;99536.19;;;20.49
73734;BMP280;62039;50.000;9.064;2023-09-18T06:42:11;99527.78;;;20.52
73734;BMP280;62039;50.000;9.064;2023-09-18T06:44:38;99522.00;;;20.55
73734;BMP280;62039;50.000;9.064;2023-09-18T06:47:05;99517.22;;;20.57
73734;BMP280;62039;50.000;9.064;2023-09-18T06:49:34;99522.06;;;20.60
73734;BMP280;62039;50.000;9.064;2023-09-18T06:52:02;99519.69;;;20.64
73734;BMP280;62039;50.000;9.064;2023-09-18T06:54:32;99527.41;;;20.65
73734;BMP280;62039;50.000;9.064;2023-09-18T06:56:59;99536.47;;;20.69
73734;BMP280;62039;50.000;9.064;2023-09-18T06:59:26;99546.63;;;20.72
73734;BMP280;62039;50.000;9.064;2023-09-18T07:01:57;99564.75;;;20.75
73734;BMP280;62039;50.000;9.064;2023-09-18T07:04:24;99565.03;;;20.79
73734;BMP280;62039;50.000;9.064;2023-09-18T07:06:53;99576.75;;;20.83
73734;BMP280;62039;50.000;9.064;2023-09-18T07:09:20;99564.06;;;20.85
73734;BMP280;62039;50.000;9.064;2023-09-18T07:11:48;99573.16;;;20.89
73734;BMP280;62039;50.000;9.064;2023-09-18T07:14:15;99583.50;;;20.91
73734;BMP280;62039;50.000;9.064;2023-09-18T07:16:43;99582.22;;;20.93
73734;BMP280;62039;50.000;9.064;2023-09-18T07:19:10;99583.03;;;20.94
73734;BMP280;62039;50.000;9.064;2023-09-18T07:21:37;99579.06;;;20.96
73734;BMP280;62039;50.000;9.064;2023-09-18T07:24:07;99573.50;;;20.98
73734;BMP280;62039;50.000;9.064;2023-09-18T07:26:33;99574.06;;;21.00
73734;BMP280;62039;50.000;9.064;2023-09-18T07:29:01;99576.22;;;21.03
73734;BMP280;62039;50.000;9.064;2023-09-18T07:31:28;99576.78;;;21.05
73734;BMP280;62039;50.000;9.064;2023-09-18T07:33:55;99580.00;;;21.07
73734;BMP280;62039;50.000;9.064;2023-09-18T07:36:22;99590.09;;;21.10
73734;BMP280;62039;50.000;9.064;2023-09-18T07:38:50;99583.75;;;21.11
73734;BMP280;62039;50.000;9.064;2023-09-18T07:41:20;99591.47;;;21.12
73734;BMP280;62039;50.000;9.064;2023-09-18T07:43:47;99598.41;;;21.13
73734;BMP280;62039;50.000;9.064;2023-09-18T07:46:14;99595.50;;;21.15
73734;BMP280;62039;50.000;9.064;2023-09-18T07:48:41;99594.47;;;21.16
73734;BMP280;62039;50.000;9.064;2023-09-18T07:51:10;99596.03;;;21.17
73734;BMP280;62039;50.000;9.064;2023-09-18T07:53:40;99609.06;;;21.19
73734;BMP280;62039;50.000;9.064;2023-09-18T07:56:07;99604.31;;;21.21
73734;BMP280;62039;50.000;9.064;2023-09-18T07:58:37;99612.84;;;21.23
73734;BMP280;62039;50.000;9.064;2023-09-18T08:01:05;99622.16;;;21.25
73734;BMP280;62039;50.000;9.064;2023-09-18T08:03:32;99625.16;;;21.29
73734;BMP280;62039;50.000;9.064;2023-09-18T08:05:59;99627.28;;;21.32
73734;BMP280;62039;50.000;9.064;2023-09-18T08:08:26;99625.00;;;21.35
73734;BMP280;62039;50.000;9.064;2023-09-18T08:10:54;99627.13;;;21.38
73734;BMP280;62039;50.000;9.064;2023-09-18T08:13:20;99611.50;;;21.42
73734;BMP280;62039;50.000;9.064;2023-09-18T08:15:50;99626.69;;;21.46
73734;BMP280;62039;50.000;9.064;2023-09-18T08:18:17;99631.75;;;21.48
73734;BMP280;62039;50.000;9.064;2023-09-18T08:20:44;99632.06;;;21.51
73734;BMP280;62039;50.000;9.064;2023-09-18T08:23:12;99633.66;;;21.52
73734;BMP280;62039;50.000;9.064;2023-09-18T08:25:39;99627.31;;;21.53
73734;BMP280;62039;50.000;9.064;2023-09-18T08:28:06;99623.84;;;21.53
73734;BMP280;62039;50.000;9.064;2023-09-18T08:30:35;99630.78;;;21.54
73734;BMP280;62039;50.000;9.064;2023-09-18T08:33:05;99620.94;;;21.54
73734;BMP280;62039;50.000;9.064;2023-09-18T08:35:33;99626.50;;;21.53
73734;BMP280;62039;50.000;9.064;2023-09-18T08:38:00;99623.03;;;21.52
73734;BMP280;62039;50.000;9.064;2023-09-18T08:40:27;99623.84;;;21.53
73734;BMP280;62039;50.000;9.064;2023-09-18T08:42:55;99617.25;;;21.56
73734;BMP280;62039;50.000;9.064;2023-09-18T08:45:30;99613.53;;;21.57
73734;BMP280;62039;50.000;9.064;2023-09-18T08:47:59;99617.78;;;21.58
73734;BMP280;62039;50.000;9.064;2023-09-18T08:50:29;99616.25;;;21.62
73734;BMP280;62039;50.000;9.064;2023-09-18T08:52:57;99615.72;;;21.65
73734;BMP280;62039;50.000;9.064;2023-09-18T08:55:24;99617.66;;;21.69
73734;BMP280;62039;50.000;9.064;2023-09-18T08:57:52;99610.78;;;21.73
73734;BMP280;62039;50.000;9.064;2023-09-18T09:00:19;99605.50;;;21.78
73734;BMP280;62039;50.000;9.064;2023-09-18T09:02:46;99599.69;;;21.81
73734;BMP280;62039;50.000;9.064;2023-09-18T09:05:13;99606.09;;;21.85
73734;BMP280;62039;50.000;9.064;2023-09-18T09:07:43;99604.56;;;21.89
73734;BMP280;62039;50.000;9.064;2023-09-18T09:10:10;99605.94;;;21.92
73734;BMP280;62039;50.000;9.064;2023-09-18T09:12:47;99573.53;;;21.95
73734;BMP280;62039;50.000;9.064;2023-09-18T09:15:14;99592.66;;;21.97
73734;BMP280;62039;50.000;9.064;2023-09-18T09:17:41;99585.81;;;22.01
73734;BMP280;62039;50.000;9.064;2023-09-18T09:20:09;99572.56;;;22.06
73734;BMP280;62039;50.000;9.064;2023-09-18T09:22:37;99565.69;;;22.10
73734;BMP280;62039;50.000;9.064;2023-09-18T09:25:21;99563.56;;;22.12
73734;BMP280;62039;50.000;9.064;2023-09-18T09:27:49;99577.16;;;22.16
73734;BMP280;62039;50.000;9.064;2023-09-18T09:30:19;99583.00;;;22.18
73734;BMP280;62039;50.000;9.064;2023-09-18T09:32:48;99585.97;;;22.21
73734;BMP280;62039;50.000;9.064;2023-09-18T09:35:20;99598.47;;;22.21
73734;BMP280;62039;50.000;9.064;2023-09-18T09:37:47;99601.94;;;22.21
73734;BMP280;62039;50.000;9.064;2023-09-18T09:40:19;99604.59;;;22.21
73734;BMP280;62039;50.000;9.064;2023-09-18T09:42:46;99606.69;;;22.19
73734;BMP280;62039;50.000;9.064;2023-09-18T09:45:15;99603.75;;;22.16
73734;BMP280;62039;50.000;9.064;2023-09-18T09:47:42;99599.72;;;22.13
73734;BMP280;62039;50.000;9.064;2023-09-18T09:50:11;99604.78;;;22.10
73734;BMP280;62039;50.000;9.064;2023-09-18T09:52:42;99625.50;;;22.08
73734;BMP280;62039;50.000;9.064;2023-09-18T09:55:27;99625.16;;;22.04
73734;BMP280;62039;50.000;9.064;2023-09-18T09:57:56;99628.91;;;22.03
73734;BMP280;62039;50.000;9.064;2023-09-18T10:00:24;99628.09;;;22.03
73734;BMP280;62039;50.000;9.064;2023-09-18T10:02:55;99627.59;;;22.06
73734;BMP280;62039;50.000;9.064;2023-09-18T10:05:24;99620.16;;;22.08
73734;BMP280;62039;50.000;9.064;2023-09-18T10:08:02;99628.69;;;22.10
73734;BMP280;62039;50.000;9.064;2023-09-18T10:10:34;99630.03;;;22.12
73734;BMP280;62039;50.000;9.064;2023-09-18T10:13:07;99630.03;;;22.12
73734;BMP280;62039;50.000;9.064;2023-09-18T10:15:37;99643.88;;;22.14
73734;BMP280;62039;50.000;9.064;2023-09-18T10:18:07;99645.75;;;22.14
73734;BMP280;62039;50.000;9.064;2023-09-18T10:20:39;99649.75;;;22.16
73734;BMP280;62039;50.000;9.064;2023-09-18T10:23:06;99649.50;;;22.18
73734;BMP280;62039;50.000;9.064;2023-09-18T10:25:36;99658.28;;;22.18
73734;BMP280;62039;50.000;9.064;2023-09-18T10:28:04;99668.09;;;22.18
73734;BMP280;62039;50.000;9.064;2023-09-18T10:30:32;99660.13;;;22.18
73734;BMP280;62039;50.000;9.064;2023-09-18T10:33:00;99666.53;;;22.17
73734;BMP280;62039;50.000;9.064;2023-09-18T10:35:27;99652.44;;;22.16
73734;BMP280;62039;50.000;9.064;2023-09-18T10:37:55;99650.06;;;22.20
73734;BMP280;62039;50.000;9.064;2023-09-18T10:40:23;99650.84;;;22.20
73734;BMP280;62039;50.000;9.064;2023-09-18T10:42:57;99648.75;;;22.22
73734;BMP280;62039;50.000;9.064;2023-09-18T10:45:24;99642.88;;;22.20
73734;BMP280;62039;50.000;9.064;2023-09-18T10:47:52;99652.97;;;22.18
73734;BMP280;62039;50.000;9.064;2023-09-18T10:50:24;99656.66;;;22.17
73734;BMP280;62039;50.000;9.064;2023-09-18T10:52:51;99663.06;;;22.16
73734;BMP280;62039;50.000;9.064;2023-09-18T10:55:18;99652.69;;;22.15
73734;BMP280;62039;50.000;9.064;2023-09-18T10:57:55;99640.19;;;22.15
73734;BMP280;62039;50.000;9.064;2023-09-18T11:00:25;99637.53;;;22.15
73734;BMP280;62039;50.000;9.064;2023-09-18T11:02:52;99642.84;;;22.15
73734;BMP280;62039;50.000;9.064;2023-09-18T11:05:29;99660.41;;;22.16
73734;BMP280;62039;50.000;9.064;2023-09-18T11:08:28;99659.84;;;22.14
73734;BMP280;62039;50.000;9.064;2023-09-18T11:10:57;99654.53;;;22.14
73734;BMP280;62039;50.000;9.064;2023-09-18T11:13:36;99647.59;;;22.13
73734;BMP280;62039;50.000;9.064;2023-09-18T11:16:32;99644.38;;;22.11
73734;BMP280;62039;50.000;9.064;2023-09-18T11:19:07;99653.97;;;22.12
73734;BMP280;62039;50.000;9.064;2023-09-18T11:21:35;99655.56;;;22.13
73734;BMP280;62039;50.000;9.064;2023-09-18T11:24:03;99651.88;;;22.14
73734;BMP280;62039;50.000;9.064;2023-09-18T11:26:31;99648.69;;;22.17
73734;BMP280;62039;50.000;9.064;2023-09-18T11:29:04;99652.47;;;22.21
73734;BMP280;62039;50.000;9.064;2023-09-18T11:31:45;99661.81;;;22.24
73734;BMP280;62039;50.000;9.064;2023-09-18T11:34:14;99660.22;;;22.28
73734;BMP280;62039;50.000;9.064;2023-09-18T11:36:41;99656.28;;;22.30
73734;BMP280;62039;50.000;9.064;2023-09-18T11:39:08;99635.53;;;22.32
73734;BMP280;62039;50.000;9.064;2023-09-18T11:41:36;99640.09;;;22.37
73734;BMP280;62039;50.000;9.064;2023-09-18T11:47:07;99646.78;;;22.45
73734;BMP280;62039;50.000;9.064;2023-09-18T11:49:35;99652.41;;;22.48
73734;BMP280;62039;50.000;9.064;2023-09-18T11:52:02;99649.00;;;22.53
73734;BMP280;62039;50.000;9.064;2023-09-18T11:54:31;99636.25;;;22.55
73734;BMP280;62039;50.000;9.064;2023-09-18T11:57:03;99628.84;;;22.57
73734;BMP280;62039;50.000;9.064;2023-09-18T11:59:40;99618.72;;;22.59
73734;BMP280;62039;50.000;9.064;2023-09-18T12:02:17;99621.13;;;22.60
73734;BMP280;62039;50.000;9.064;2023-09-18T12:04:51;99631.53;;;22.62
73734;BMP280;62039;50.000;9.064;2023-09-18T12:07:18;99648.03;;;22.64
73734;BMP280;62039;50.000;9.064;2023-09-18T12:09:46;99646.97;;;22.65
73734;BMP280;62039;50.000;9.064;2023-09-18T12:12:14;99647.50;;;22.67
73734;BMP280;62039;50.000;9.064;2023-09-18T12:14:42;99628.38;;;22.70
73734;BMP280;62039;50.000;9.064;2023-09-18T12:17:16;99643.56;;;22.75
73734;BMP280;62039;50.000;9.064;2023-09-18T12:19:53;99649.16;;;22.78
73734;BMP280;62039;50.000;9.064;2023-09-18T12:22:24;99651.84;;;22.78
73734;BMP280;62039;50.000;9.064;2023-09-18T12:24:51;99650.25;;;22.77
73734;BMP280;62039;50.000;9.064;2023-09-18T12:27:18;99651.06;;;22.78
73734;BMP280;62039;50.000;9.064;2023-09-18T12:29:46;99653.44;;;22.79
73734;BMP280;62039;50.000;9.064;2023-09-18T12:32:16;99648.91;;;22.80
73734;BMP280;62039;50.000;9.064;2023-09-18T12:34:43;99647.63;;;22.82
73734;BMP280;62039;50.000;9.064;2023-09-18T12:37:13;99646.56;;;22.83
73734;BMP280;62039;50.000;9.064;2023-09-18T12:39:40;99640.44;;;22.83
73734;BMP280;62039;50.000;9.064;2023-09-18T12:42:07;99637.78;;;22.83
73734;BMP280;62039;50.000;9.064;2023-09-18T12:44:34;99642.28;;;22.82
73734;BMP280;62039;50.000;9.064;2023-09-18T12:47:02;99650.03;;;22.84
73734;BMP280;62039;50.000;9.064;2023-09-18T12:49:32;99649.22;;;22.83
73734;BMP280;62039;50.000;9.064;2023-09-18T12:52:00;99652.41;;;22.85
73734;BMP280;62039;50.000;9.064;2023-09-18T12:54:38;99654.03;;;22.86
73734;BMP280;62039;50.000;9.064;2023-09-18T12:57:05;99658.28;;;22.87
73734;BMP280;62039;50.000;9.064;2023-09-18T12:59:33;99644.19;;;22.87
73734;BMP280;62039;50.000;9.064;2023-09-18T13:02:00;99656.44;;;22.88
73734;BMP280;62039;50.000;9.064;2023-09-18T13:04:27;99645.78;;;22.88
73734;BMP280;62039;50.000;9.064;2023-09-18T13:07:08;99635.13;;;22.88
73734;BMP280;62039;50.000;9.064;2023-09-18T13:09:35;99627.41;;;22.86
73734;BMP280;62039;50.000;9.064;2023-09-18T13:12:03;99625.00;;;22.85
73734;BMP280;62039;50.000;9.064;2023-09-18T13:14:40;99636.72;;;22.84
73734;BMP280;62039;50.000;9.064;2023-09-18T13:17:17;99639.38;;;22.84
73734;BMP280;62039;50.000;9.064;2023-09-18T13:19:44;99642.84;;;22.84
73734;BMP280;62039;50.000;9.064;2023-09-18T13:22:22;99634.59;;;22.86
73734;BMP280;62039;50.000;9.064;2023-09-18T13:24:55;99629.00;;;22.87
73734;BMP280;62039;50.000;9.064;2023-09-18T13:27:23;99625.53;;;22.87
73734;BMP280;62039;50.000;9.064;2023-09-18T13:29:51;99620.75;;;22.89
73734;BMP280;62039;50.000;9.064;2023-09-18T13:32:18;99618.91;;;22.89
73734;BMP280;62039;50.000;9.064;2023-09-18T13:34:45;99618.91;;;22.89
73734;BMP280;62039;50.000;9.064;2023-09-18T13:37:15;99611.19;;;22.93
73734;BMP280;62039;50.000;9.064;2023-09-18T13:39:42;99602.94;;;22.94
73734;BMP280;62039;50.000;9.064;2023-09-18T13:42:09;99612.81;;;22.94
73734;BMP280;62039;50.000;9.064;2023-09-18T13:44:36;99612.28;;;22.97
73734;BMP280;62039;50.000;9.064;2023-09-18T13:47:04;99607.00;;;23.02
73734;BMP280;62039;50.000;9.064;2023-09-18T13:49:31;99611.31;;;23.08
73734;BMP280;62039;50.000;9.064;2023-09-18T13:51:58;99603.31;;;23.13
73734;BMP280;62039;50.000;9.064;2023-09-18T13:54:27;99600.41;;;23.20
73734;BMP280;62039;50.000;9.064;2023-09-18T13:56:54;99597.00;;;23.24
73734;BMP280;62039;50.000;9.064;2023-09-18T13:59:24;99610.84;;;23.26
73734;BMP280;62039;50.000;9.064;2023-09-18T14:01:51;99608.72;;;23.28
73734;BMP280;62039;50.000;9.064;2023-09-18T14:04:18;99604.75;;;23.31
73734;BMP280;62039;50.000;9.064;2023-09-18T14:06:45;99611.66;;;23.32
73734;BMP280;62039;50.000;9.064;2023-09-18T14:09:13;99596.47;;;23.32
73734;BMP280;62039;50.000;9.064;2023-09-18T14:11:47;99599.41;;;23.36
73734;BMP280;62039;50.000;9.064;2023-09-18T14:14:15;99600.47;;;23.35
73734;BMP280;62039;50.000;9.064;2023-09-18T14:16:41;99604.75;;;23.36
73734;BMP280;62039;50.000;9.064;2023-09-18T14:19:09;99600.72;;;23.33
73734;BMP280;62039;50.000;9.064;2023-09-18T14:21:35;99584.75;;;23.33
73734;BMP280;62039;50.000;9.064;2023-09-18T14:24:03;99580.22;;;23.34
73734;BMP280;62039;50.000;9.064;2023-09-18T14:26:30;99575.44;;;23.36